sensor_id;sensor_type;location;lat;lon;timestamp;P1;durP1;ratioP1;P2;durP2;ratioP2
51272;SDS011;37345;59.828;30.328;2023-04-25T00:00:05;21.33;;;9.68;;
51272;SDS011;37345;59.828;30.328;2023-04-25T00:02:32;16.70;;;8.55;;
51272;SDS011;37345;59.828;30.328;2023-04-25T00:05:00;11.85;;;7.90;;
51272;SDS011;37345;59.828;30.328;2023-04-25T00:07:26;13.43;;;8.10;;
51272;SDS011;37345;59.828;30.328;2023-04-25T00:09:52;12.18;;;7.60;;
51272;SDS011;37345;59.828;30.328;2023-04-25T00:12:22;15.38;;;9.02;;
51272;SDS011;37345;59.828;30.328;2023-04-25T00:14:53;15.38;;;7.65;;
51272;SDS011;37345;59.828;30.328;2023-04-25T00:17:22;13.33;;;7.23;;
51272;SDS011;37345;59.828;30.328;2023-04-25T00:19:49;9.80;;;6.50;;
51272;SDS011;37345;59.828;30.328;2023-04-25T00:22:16;12.18;;;7.30;;
51272;SDS011;37345;59.828;30.328;2023-04-25T00:24:42;16.97;;;7.13;;
51272;SDS011;37345;59.828;30.328;2023-04-25T00:27:08;9.55;;;6.50;;
51272;SDS011;37345;59.828;30.328;2023-04-25T00:29:34;10.90;;;6.22;;
51272;SDS011;37345;59.828;30.328;2023-04-25T00:32:01;12.18;;;7.28;;
51272;SDS011;37345;59.828;30.328;2023-04-25T00:34:27;13.32;;;6.70;;
51272;SDS011;37345;59.828;30.328;2023-04-25T00:36:53;9.98;;;5.47;;
51272;SDS011;37345;59.828;30.328;2023-04-25T00:39:19;10.43;;;6.87;;
51272;SDS011;37345;59.828;30.328;2023-04-25T00:41:45;9.98;;;6.40;;
51272;SDS011;37345;59.828;30.328;2023-04-25T00:44:12;9.85;;;5.32;;
51272;SDS011;37345;59.828;30.328;2023-04-25T00:46:38;10.40;;;6.57;;
51272;SDS011;37345;59.828;30.328;2023-04-25T00:49:05;12.77;;;6.43;;
51272;SDS011;37345;59.828;30.328;2023-04-25T00:51:31;11.90;;;5.88;;
51272;SDS011;37345;59.828;30.328;2023-04-25T00:53:59;12.05;;;5.80;;
51272;SDS011;37345;59.828;30.328;2023-04-25T00:56:25;7.57;;;4.93;;
51272;SDS011;37345;59.828;30.328;2023-04-25T00:58:52;10.50;;;5.73;;
51272;SDS011;37345;59.828;30.328;2023-04-25T01:01:22;8.75;;;5.72;;
51272;SDS011;37345;59.828;30.328;2023-04-25T01:03:48;8.90;;;5.63;;
51272;SDS011;37345;59.828;30.328;2023-04-25T01:06:16;7.32;;;5.18;;
51272;SDS011;37345;59.828;30.328;2023-04-25T01:08:42;8.77;;;5.45;;
51272;SDS011;37345;59.828;30.328;2023-04-25T01:11:08;8.88;;;5.30;;
51272;SDS011;37345;59.828;30.328;2023-04-25T01:13:34;13.02;;;4.93;;
51272;SDS011;37345;59.828;30.328;2023-04-25T01:16:01;8.23;;;5.32;;
51272;SDS011;37345;59.828;30.328;2023-04-25T01:18:27;7.13;;;4.80;;
51272;SDS011;37345;59.828;30.328;2023-04-25T01:20:54;11.25;;;5.40;;
51272;SDS011;37345;59.828;30.328;2023-04-25T01:23:21;7.18;;;5.25;;
51272;SDS011;37345;59.828;30.328;2023-04-25T01:25:48;7.27;;;5.30;;
51272;SDS011;37345;59.828;30.328;2023-04-25T01:28:14;9.30;;;5.03;;
51272;SDS011;37345;59.828;30.328;2023-04-25T01:30:42;8.20;;;5.13;;
51272;SDS011;37345;59.828;30.328;2023-04-25T01:33:08;8.20;;;4.68;;
51272;SDS011;37345;59.828;30.328;2023-04-25T01:35:35;8.35;;;5.03;;
51272;SDS011;37345;59.828;30.328;2023-04-25T01:38:01;9.20;;;4.88;;
51272;SDS011;37345;59.828;30.328;2023-04-25T01:40:27;7.65;;;4.75;;
51272;SDS011;37345;59.828;30.328;2023-04-25T01:42:53;8.02;;;4.50;;
51272;SDS011;37345;59.828;30.328;2023-04-25T01:45:20;7.75;;;5.40;;
51272;SDS011;37345;59.828;30.328;2023-04-25T01:47:46;10.43;;;5.70;;
51272;SDS011;37345;59.828;30.328;2023-04-25T01:50:15;8.80;;;5.18;;
51272;SDS011;37345;59.828;30.328;2023-04-25T01:52:42;9.73;;;5.18;;
51272;SDS011;37345;59.828;30.328;2023-04-25T01:55:10;7.85;;;4.85;;
51272;SDS011;37345;59.828;30.328;2023-04-25T01:57:36;10.07;;;5.30;;
51272;SDS011;37345;59.828;30.328;2023-04-25T02:00:04;6.45;;;3.95;;
51272;SDS011;37345;59.828;30.328;2023-04-25T02:02:31;10.18;;;5.03;;
51272;SDS011;37345;59.828;30.328;2023-04-25T02:04:57;8.48;;;4.70;;
51272;SDS011;37345;59.828;30.328;2023-04-25T02:07:25;5.43;;;3.63;;
51272;SDS011;37345;59.828;30.328;2023-04-25T02:09:52;7.10;;;3.80;;
51272;SDS011;37345;59.828;30.328;2023-04-25T02:12:18;6.93;;;4.20;;
51272;SDS011;37345;59.828;30.328;2023-04-25T02:14:44;5.80;;;3.90;;
51272;SDS011;37345;59.828;30.328;2023-04-25T02:17:10;7.50;;;3.80;;
51272;SDS011;37345;59.828;30.328;2023-04-25T02:19:37;5.73;;;3.07;;
51272;SDS011;37345;59.828;30.328;2023-04-25T02:22:04;5.93;;;3.55;;
51272;SDS011;37345;59.828;30.328;2023-04-25T02:24:30;5.67;;;3.60;;
51272;SDS011;37345;59.828;30.328;2023-04-25T02:26:57;5.75;;;3.40;;
51272;SDS011;37345;59.828;30.328;2023-04-25T02:29:23;7.93;;;3.30;;
51272;SDS011;37345;59.828;30.328;2023-04-25T02:31:49;4.32;;;3.30;;
51272;SDS011;37345;59.828;30.328;2023-04-25T02:34:15;5.57;;;3.30;;
51272;SDS011;37345;59.828;30.328;2023-04-25T02:36:41;23.50;;;10.13;;
51272;SDS011;37345;59.828;30.328;2023-04-25T02:39:07;10.15;;;6.05;;
51272;SDS011;37345;59.828;30.328;2023-04-25T02:41:33;10.25;;;4.28;;
51272;SDS011;37345;59.828;30.328;2023-04-25T02:43:59;5.13;;;3.47;;
51272;SDS011;37345;59.828;30.328;2023-04-25T02:46:26;4.32;;;3.08;;
51272;SDS011;37345;59.828;30.328;2023-04-25T02:48:52;4.07;;;3.03;;
51272;SDS011;37345;59.828;30.328;2023-04-25T02:51:18;4.65;;;2.42;;
51272;SDS011;37345;59.828;30.328;2023-04-25T02:53:44;4.60;;;2.30;;
51272;SDS011;37345;59.828;30.328;2023-04-25T02:56:10;5.25;;;2.65;;
51272;SDS011;37345;59.828;30.328;2023-04-25T02:58:36;5.07;;;2.53;;
51272;SDS011;37345;59.828;30.328;2023-04-25T03:01:02;5.80;;;2.50;;
51272;SDS011;37345;59.828;30.328;2023-04-25T03:03:28;3.45;;;2.58;;
51272;SDS011;37345;59.828;30.328;2023-04-25T03:05:55;3.85;;;2.33;;
51272;SDS011;37345;59.828;30.328;2023-04-25T03:08:21;5.15;;;2.25;;
51272;SDS011;37345;59.828;30.328;2023-04-25T03:10:47;4.90;;;2.28;;
51272;SDS011;37345;59.828;30.328;2023-04-25T03:13:16;3.50;;;2.30;;
51272;SDS011;37345;59.828;30.328;2023-04-25T03:15:42;4.03;;;2.47;;
51272;SDS011;37345;59.828;30.328;2023-04-25T03:18:08;3.80;;;2.42;;
51272;SDS011;37345;59.828;30.328;2023-04-25T03:20:34;3.47;;;2.50;;
51272;SDS011;37345;59.828;30.328;2023-04-25T03:23:00;4.78;;;2.50;;
51272;SDS011;37345;59.828;30.328;2023-04-25T03:25:26;6.68;;;2.50;;
51272;SDS011;37345;59.828;30.328;2023-04-25T03:27:52;3.50;;;2.33;;
51272;SDS011;37345;59.828;30.328;2023-04-25T03:30:19;4.82;;;2.50;;
51272;SDS011;37345;59.828;30.328;2023-04-25T03:32:45;5.57;;;2.42;;
51272;SDS011;37345;59.828;30.328;2023-04-25T03:35:11;3.15;;;2.17;;
51272;SDS011;37345;59.828;30.328;2023-04-25T03:37:37;5.60;;;2.63;;
51272;SDS011;37345;59.828;30.328;2023-04-25T03:40:05;4.78;;;2.25;;
51272;SDS011;37345;59.828;30.328;2023-04-25T03:42:34;3.25;;;2.28;;
51272;SDS011;37345;59.828;30.328;2023-04-25T03:45:00;6.70;;;2.35;;
51272;SDS011;37345;59.828;30.328;2023-04-25T03:47:28;6.97;;;2.10;;
51272;SDS011;37345;59.828;30.328;2023-04-25T03:49:54;4.88;;;2.13;;
51272;SDS011;37345;59.828;30.328;2023-04-25T03:52:20;4.90;;;2.13;;
51272;SDS011;37345;59.828;30.328;2023-04-25T03:54:46;8.32;;;2.22;;
51272;SDS011;37345;59.828;30.328;2023-04-25T03:57:13;3.95;;;2.13;;
51272;SDS011;37345;59.828;30.328;2023-04-25T03:59:39;6.70;;;2.22;;
51272;SDS011;37345;59.828;30.328;2023-04-25T04:02:05;4.18;;;2.40;;
51272;SDS011;37345;59.828;30.328;2023-04-25T04:04:31;5.28;;;2.40;;
51272;SDS011;37345;59.828;30.328;2023-04-25T04:06:57;5.05;;;2.20;;
51272;SDS011;37345;59.828;30.328;2023-04-25T04:09:23;7.68;;;2.20;;
51272;SDS011;37345;59.828;30.328;2023-04-25T04:11:52;4.63;;;2.35;;
51272;SDS011;37345;59.828;30.328;2023-04-25T04:14:18;4.03;;;2.30;;
51272;SDS011;37345;59.828;30.328;2023-04-25T04:16:47;4.07;;;2.20;;
51272;SDS011;37345;59.828;30.328;2023-04-25T04:19:13;4.22;;;2.20;;
51272;SDS011;37345;59.828;30.328;2023-04-25T04:21:39;5.40;;;2.42;;
51272;SDS011;37345;59.828;30.328;2023-04-25T04:24:05;4.75;;;2.20;;
51272;SDS011;37345;59.828;30.328;2023-04-25T04:26:32;5.28;;;2.15;;
51272;SDS011;37345;59.828;30.328;2023-04-25T04:28:59;2.95;;;1.90;;
51272;SDS011;37345;59.828;30.328;2023-04-25T04:31:26;4.18;;;1.98;;
51272;SDS011;37345;59.828;30.328;2023-04-25T04:33:52;5.35;;;2.28;;
51272;SDS011;37345;59.828;30.328;2023-04-25T04:36:18;5.10;;;1.88;;
51272;SDS011;37345;59.828;30.328;2023-04-25T04:38:48;3.47;;;2.00;;
51272;SDS011;37345;59.828;30.328;2023-04-25T04:41:14;7.65;;;2.42;;
51272;SDS011;37345;59.828;30.328;2023-04-25T04:43:41;5.28;;;2.38;;
51272;SDS011;37345;59.828;30.328;2023-04-25T04:46:08;6.15;;;2.47;;
51272;SDS011;37345;59.828;30.328;2023-04-25T04:48:35;8.05;;;2.40;;
51272;SDS011;37345;59.828;30.328;2023-04-25T04:51:01;5.03;;;2.53;;
51272;SDS011;37345;59.828;30.328;2023-04-25T04:53:27;10.88;;;2.50;;
51272;SDS011;37345;59.828;30.328;2023-04-25T04:55:53;5.47;;;2.28;;
51272;SDS011;37345;59.828;30.328;2023-04-25T04:58:21;5.05;;;2.53;;
51272;SDS011;37345;59.828;30.328;2023-04-25T05:00:48;3.90;;;2.20;;
51272;SDS011;37345;59.828;30.328;2023-04-25T05:03:14;5.70;;;2.30;;
51272;SDS011;37345;59.828;30.328;2023-04-25T05:05:41;6.50;;;2.38;;
51272;SDS011;37345;59.828;30.328;2023-04-25T05:08:07;5.13;;;2.30;;
51272;SDS011;37345;59.828;30.328;2023-04-25T05:10:33;8.82;;;2.78;;
51272;SDS011;37345;59.828;30.328;2023-04-25T05:12:59;7.95;;;2.30;;
51272;SDS011;37345;59.828;30.328;2023-04-25T05:15:25;6.60;;;2.10;;
51272;SDS011;37345;59.828;30.328;2023-04-25T05:17:51;5.20;;;2.22;;
51272;SDS011;37345;59.828;30.328;2023-04-25T05:20:18;7.22;;;2.40;;
51272;SDS011;37345;59.828;30.328;2023-04-25T05:22:44;3.07;;;2.30;;
51272;SDS011;37345;59.828;30.328;2023-04-25T05:25:10;8.00;;;2.28;;
51272;SDS011;37345;59.828;30.328;2023-04-25T05:27:36;10.30;;;2.50;;
51272;SDS011;37345;59.828;30.328;2023-04-25T05:30:03;6.97;;;1.92;;
51272;SDS011;37345;59.828;30.328;2023-04-25T05:32:30;3.35;;;2.00;;
51272;SDS011;37345;59.828;30.328;2023-04-25T05:34:56;7.55;;;2.63;;
51272;SDS011;37345;59.828;30.328;2023-04-25T05:37:22;6.60;;;2.43;;
51272;SDS011;37345;59.828;30.328;2023-04-25T05:39:48;4.65;;;2.15;;
51272;SDS011;37345;59.828;30.328;2023-04-25T05:42:15;4.00;;;2.33;;
51272;SDS011;37345;59.828;30.328;2023-04-25T05:44:41;4.32;;;2.45;;
51272;SDS011;37345;59.828;30.328;2023-04-25T05:47:07;6.45;;;2.17;;
51272;SDS011;37345;59.828;30.328;2023-04-25T05:49:33;4.05;;;2.20;;
51272;SDS011;37345;59.828;30.328;2023-04-25T05:52:00;8.85;;;2.65;;
51272;SDS011;37345;59.828;30.328;2023-04-25T05:54:26;7.75;;;2.40;;
51272;SDS011;37345;59.828;30.328;2023-04-25T05:56:52;5.38;;;2.22;;
51272;SDS011;37345;59.828;30.328;2023-04-25T05:59:18;12.45;;;2.70;;
51272;SDS011;37345;59.828;30.328;2023-04-25T06:01:44;7.13;;;2.87;;
51272;SDS011;37345;59.828;30.328;2023-04-25T06:04:11;4.38;;;2.50;;
51272;SDS011;37345;59.828;30.328;2023-04-25T06:06:37;7.35;;;2.38;;
51272;SDS011;37345;59.828;30.328;2023-04-25T06:09:04;5.43;;;2.17;;
51272;SDS011;37345;59.828;30.328;2023-04-25T06:11:30;4.72;;;2.28;;
51272;SDS011;37345;59.828;30.328;2023-04-25T06:13:56;5.38;;;2.20;;
51272;SDS011;37345;59.828;30.328;2023-04-25T06:16:22;4.13;;;2.30;;
51272;SDS011;37345;59.828;30.328;2023-04-25T06:18:50;5.60;;;2.30;;
51272;SDS011;37345;59.828;30.328;2023-04-25T06:21:17;3.47;;;2.10;;
51272;SDS011;37345;59.828;30.328;2023-04-25T06:23:43;4.07;;;2.28;;
51272;SDS011;37345;59.828;30.328;2023-04-25T06:26:09;3.38;;;2.20;;
51272;SDS011;37345;59.828;30.328;2023-04-25T06:28:35;5.20;;;1.90;;
51272;SDS011;37345;59.828;30.328;2023-04-25T06:31:01;5.95;;;2.38;;
51272;SDS011;37345;59.828;30.328;2023-04-25T06:33:28;9.55;;;2.25;;
51272;SDS011;37345;59.828;30.328;2023-04-25T06:35:54;4.35;;;2.10;;
51272;SDS011;37345;59.828;30.328;2023-04-25T06:38:20;6.43;;;2.33;;
51272;SDS011;37345;59.828;30.328;2023-04-25T06:40:46;7.20;;;1.92;;
51272;SDS011;37345;59.828;30.328;2023-04-25T06:43:12;5.63;;;1.90;;
51272;SDS011;37345;59.828;30.328;2023-04-25T06:45:38;3.75;;;1.92;;
51272;SDS011;37345;59.828;30.328;2023-04-25T06:48:05;3.47;;;1.92;;
51272;SDS011;37345;59.828;30.328;2023-04-25T06:50:31;12.02;;;2.47;;
51272;SDS011;37345;59.828;30.328;2023-04-25T06:52:57;5.45;;;2.22;;
51272;SDS011;37345;59.828;30.328;2023-04-25T06:55:23;3.55;;;2.00;;
51272;SDS011;37345;59.828;30.328;2023-04-25T06:57:49;5.03;;;2.08;;
51272;SDS011;37345;59.828;30.328;2023-04-25T07:00:15;3.45;;;1.65;;
51272;SDS011;37345;59.828;30.328;2023-04-25T07:02:42;3.47;;;1.70;;
51272;SDS011;37345;59.828;30.328;2023-04-25T07:05:08;3.38;;;1.95;;
51272;SDS011;37345;59.828;30.328;2023-04-25T07:07:34;3.80;;;1.90;;
51272;SDS011;37345;59.828;30.328;2023-04-25T07:10:01;3.47;;;1.83;;
51272;SDS011;37345;59.828;30.328;2023-04-25T07:12:27;1.90;;;1.60;;
51272;SDS011;37345;59.828;30.328;2023-04-25T07:14:53;5.47;;;1.63;;
51272;SDS011;37345;59.828;30.328;2023-04-25T07:17:19;4.13;;;1.90;;
51272;SDS011;37345;59.828;30.328;2023-04-25T07:19:45;4.30;;;1.92;;
51272;SDS011;37345;59.828;30.328;2023-04-25T07:22:11;3.67;;;1.80;;
51272;SDS011;37345;59.828;30.328;2023-04-25T07:24:37;1.48;;;1.30;;
51272;SDS011;37345;59.828;30.328;2023-04-25T07:27:03;5.35;;;1.70;;
51272;SDS011;37345;59.828;30.328;2023-04-25T07:29:29;5.75;;;1.80;;
51272;SDS011;37345;59.828;30.328;2023-04-25T07:31:56;2.55;;;2.00;;
51272;SDS011;37345;59.828;30.328;2023-04-25T07:34:22;1.85;;;1.52;;
51272;SDS011;37345;59.828;30.328;2023-04-25T07:36:48;2.20;;;1.52;;
51272;SDS011;37345;59.828;30.328;2023-04-25T07:39:15;1.83;;;1.45;;
51272;SDS011;37345;59.828;30.328;2023-04-25T07:41:41;2.88;;;1.60;;
51272;SDS011;37345;59.828;30.328;2023-04-25T07:44:08;3.13;;;1.63;;
51272;SDS011;37345;59.828;30.328;2023-04-25T07:46:34;1.60;;;1.30;;
51272;SDS011;37345;59.828;30.328;2023-04-25T07:49:00;2.03;;;1.40;;
51272;SDS011;37345;59.828;30.328;2023-04-25T07:51:27;1.70;;;1.30;;
51272;SDS011;37345;59.828;30.328;2023-04-25T07:53:53;1.90;;;1.65;;
51272;SDS011;37345;59.828;30.328;2023-04-25T07:56:19;7.50;;;1.50;;
51272;SDS011;37345;59.828;30.328;2023-04-25T07:58:45;4.45;;;1.45;;
51272;SDS011;37345;59.828;30.328;2023-04-25T08:01:11;3.17;;;1.38;;
51272;SDS011;37345;59.828;30.328;2023-04-25T08:03:37;2.53;;;1.50;;
51272;SDS011;37345;59.828;30.328;2023-04-25T08:06:03;2.87;;;1.40;;
51272;SDS011;37345;59.828;30.328;2023-04-25T08:08:30;3.88;;;1.40;;
51272;SDS011;37345;59.828;30.328;2023-04-25T08:10:56;2.97;;;1.52;;
51272;SDS011;37345;59.828;30.328;2023-04-25T08:13:22;2.85;;;1.50;;
51272;SDS011;37345;59.828;30.328;2023-04-25T08:15:48;5.13;;;1.60;;
51272;SDS011;37345;59.828;30.328;2023-04-25T08:18:14;2.55;;;1.40;;
51272;SDS011;37345;59.828;30.328;2023-04-25T08:20:43;3.58;;;1.38;;
51272;SDS011;37345;59.828;30.328;2023-04-25T08:23:10;3.70;;;1.35;;
51272;SDS011;37345;59.828;30.328;2023-04-25T08:25:36;3.25;;;1.40;;
51272;SDS011;37345;59.828;30.328;2023-04-25T08:28:02;2.22;;;1.45;;
51272;SDS011;37345;59.828;30.328;2023-04-25T08:30:29;1.58;;;1.30;;
51272;SDS011;37345;59.828;30.328;2023-04-25T08:32:55;2.00;;;1.30;;
51272;SDS011;37345;59.828;30.328;2023-04-25T08:35:21;2.75;;;1.52;;
51272;SDS011;37345;59.828;30.328;2023-04-25T08:37:47;5.22;;;1.40;;
51272;SDS011;37345;59.828;30.328;2023-04-25T08:40:14;2.70;;;1.17;;
51272;SDS011;37345;59.828;30.328;2023-04-25T08:42:41;7.00;;;1.58;;
51272;SDS011;37345;59.828;30.328;2023-04-25T08:45:08;1.65;;;1.30;;
51272;SDS011;37345;59.828;30.328;2023-04-25T08:47:35;2.33;;;1.35;;
51272;SDS011;37345;59.828;30.328;2023-04-25T08:50:03;5.07;;;1.25;;
51272;SDS011;37345;59.828;30.328;2023-04-25T08:52:32;1.63;;;1.10;;
51272;SDS011;37345;59.828;30.328;2023-04-25T08:55:01;1.98;;;1.10;;
51272;SDS011;37345;59.828;30.328;2023-04-25T08:57:28;4.18;;;1.10;;
51272;SDS011;37345;59.828;30.328;2023-04-25T08:59:55;2.88;;;1.45;;
51272;SDS011;37345;59.828;30.328;2023-04-25T09:02:22;4.18;;;1.35;;
51272;SDS011;37345;59.828;30.328;2023-04-25T09:04:50;2.88;;;1.20;;
51272;SDS011;37345;59.828;30.328;2023-04-25T09:07:16;5.10;;;1.40;;
51272;SDS011;37345;59.828;30.328;2023-04-25T09:09:46;3.60;;;1.50;;
51272;SDS011;37345;59.828;30.328;2023-04-25T09:12:12;1.52;;;1.40;;
51272;SDS011;37345;59.828;30.328;2023-04-25T09:14:38;7.25;;;1.45;;
51272;SDS011;37345;59.828;30.328;2023-04-25T09:17:07;5.18;;;1.60;;
51272;SDS011;37345;59.828;30.328;2023-04-25T09:19:36;1.70;;;1.23;;
51272;SDS011;37345;59.828;30.328;2023-04-25T09:22:05;2.10;;;1.48;;
51272;SDS011;37345;59.828;30.328;2023-04-25T09:24:42;2.90;;;1.48;;
51272;SDS011;37345;59.828;30.328;2023-04-25T09:27:09;3.43;;;1.43;;
51272;SDS011;37345;59.828;30.328;2023-04-25T09:29:36;4.53;;;1.30;;
51272;SDS011;37345;59.828;30.328;2023-04-25T09:32:14;1.45;;;1.00;;
51272;SDS011;37345;59.828;30.328;2023-04-25T09:34:41;5.45;;;1.40;;
51272;SDS011;37345;59.828;30.328;2023-04-25T09:37:10;2.22;;;1.40;;
51272;SDS011;37345;59.828;30.328;2023-04-25T09:39:37;6.10;;;1.40;;
51272;SDS011;37345;59.828;30.328;2023-04-25T09:42:07;2.28;;;1.30;;
51272;SDS011;37345;59.828;30.328;2023-04-25T09:44:35;2.28;;;1.25;;
51272;SDS011;37345;59.828;30.328;2023-04-25T09:47:01;5.60;;;1.63;;
51272;SDS011;37345;59.828;30.328;2023-04-25T09:49:28;3.30;;;1.67;;
51272;SDS011;37345;59.828;30.328;2023-04-25T09:51:57;2.90;;;1.20;;
51272;SDS011;37345;59.828;30.328;2023-04-25T09:54:24;3.58;;;1.35;;
51272;SDS011;37345;59.828;30.328;2023-04-25T09:56:51;2.08;;;1.45;;
51272;SDS011;37345;59.828;30.328;2023-04-25T09:59:21;1.67;;;1.10;;
51272;SDS011;37345;59.828;30.328;2023-04-25T10:01:50;6.18;;;1.23;;
51272;SDS011;37345;59.828;30.328;2023-04-25T10:04:19;2.72;;;1.40;;
51272;SDS011;37345;59.828;30.328;2023-04-25T10:06:46;3.17;;;1.40;;
51272;SDS011;37345;59.828;30.328;2023-04-25T10:09:14;2.13;;;1.17;;
51272;SDS011;37345;59.828;30.328;2023-04-25T10:11:40;3.40;;;1.40;;
51272;SDS011;37345;59.828;30.328;2023-04-25T10:14:07;2.40;;;1.08;;
51272;SDS011;37345;59.828;30.328;2023-04-25T10:16:33;3.47;;;1.50;;
51272;SDS011;37345;59.828;30.328;2023-04-25T10:18:59;3.55;;;1.30;;
51272;SDS011;37345;59.828;30.328;2023-04-25T10:21:25;2.58;;;1.20;;
51272;SDS011;37345;59.828;30.328;2023-04-25T10:23:53;2.47;;;1.48;;
51272;SDS011;37345;59.828;30.328;2023-04-25T10:26:20;3.42;;;1.20;;
51272;SDS011;37345;59.828;30.328;2023-04-25T10:29:00;3.08;;;1.48;;
51272;SDS011;37345;59.828;30.328;2023-04-25T10:31:26;1.30;;;1.17;;
51272;SDS011;37345;59.828;30.328;2023-04-25T10:33:53;2.78;;;1.17;;
51272;SDS011;37345;59.828;30.328;2023-04-25T10:36:20;1.55;;;1.30;;
51272;SDS011;37345;59.828;30.328;2023-04-25T10:38:47;4.15;;;1.33;;
51272;SDS011;37345;59.828;30.328;2023-04-25T10:41:17;1.73;;;1.33;;
51272;SDS011;37345;59.828;30.328;2023-04-25T10:43:44;1.67;;;1.30;;
51272;SDS011;37345;59.828;30.328;2023-04-25T10:46:14;2.25;;;1.35;;
51272;SDS011;37345;59.828;30.328;2023-04-25T10:48:50;1.80;;;1.45;;
51272;SDS011;37345;59.828;30.328;2023-04-25T10:51:18;4.90;;;1.37;;
51272;SDS011;37345;59.828;30.328;2023-04-25T10:53:45;1.98;;;1.40;;
51272;SDS011;37345;59.828;30.328;2023-04-25T10:58:41;2.20;;;1.50;;
51272;SDS011;37345;59.828;30.328;2023-04-25T11:01:07;5.95;;;1.40;;
51272;SDS011;37345;59.828;30.328;2023-04-25T11:03:38;3.00;;;1.48;;
51272;SDS011;37345;59.828;30.328;2023-04-25T11:06:04;4.18;;;1.50;;
51272;SDS011;37345;59.828;30.328;2023-04-25T11:08:41;3.10;;;1.58;;
51272;SDS011;37345;59.828;30.328;2023-04-25T11:11:12;1.73;;;1.17;;
51272;SDS011;37345;59.828;30.328;2023-04-25T11:13:38;5.00;;;1.70;;
51272;SDS011;37345;59.828;30.328;2023-04-25T11:16:07;2.45;;;1.30;;
51272;SDS011;37345;59.828;30.328;2023-04-25T11:18:33;2.38;;;1.48;;
51272;SDS011;37345;59.828;30.328;2023-04-25T11:20:59;3.65;;;1.70;;
51272;SDS011;37345;59.828;30.328;2023-04-25T11:23:25;2.83;;;1.50;;
51272;SDS011;37345;59.828;30.328;2023-04-25T11:25:52;3.83;;;1.40;;
51272;SDS011;37345;59.828;30.328;2023-04-25T11:28:21;2.22;;;1.33;;
51272;SDS011;37345;59.828;30.328;2023-04-25T11:30:51;3.08;;;1.48;;
51272;SDS011;37345;59.828;30.328;2023-04-25T11:33:18;2.67;;;1.30;;
51272;SDS011;37345;59.828;30.328;2023-04-25T11:35:48;2.05;;;1.33;;
51272;SDS011;37345;59.828;30.328;2023-04-25T11:38:14;1.65;;;1.20;;
51272;SDS011;37345;59.828;30.328;2023-04-25T11:40:40;1.90;;;1.38;;
51272;SDS011;37345;59.828;30.328;2023-04-25T11:43:06;4.20;;;1.20;;
51272;SDS011;37345;59.828;30.328;2023-04-25T11:45:33;2.78;;;1.30;;
51272;SDS011;37345;59.828;30.328;2023-04-25T11:47:59;4.10;;;1.30;;
51272;SDS011;37345;59.828;30.328;2023-04-25T11:50:28;1.58;;;1.30;;
51272;SDS011;37345;59.828;30.328;2023-04-25T11:52:55;3.50;;;1.50;;
51272;SDS011;37345;59.828;30.328;2023-04-25T11:55:22;1.40;;;1.17;;
51272;SDS011;37345;59.828;30.328;2023-04-25T11:57:48;3.58;;;1.83;;
51272;SDS011;37345;59.828;30.328;2023-04-25T12:00:16;3.95;;;1.60;;
51272;SDS011;37345;59.828;30.328;2023-04-25T12:02:43;2.60;;;1.48;;
51272;SDS011;37345;59.828;30.328;2023-04-25T12:05:10;1.95;;;1.42;;
51272;SDS011;37345;59.828;30.328;2023-04-25T12:07:36;2.15;;;1.17;;
51272;SDS011;37345;59.828;30.328;2023-04-25T12:12:36;3.45;;;1.60;;
51272;SDS011;37345;59.828;30.328;2023-04-25T12:15:09;6.07;;;1.50;;
51272;SDS011;37345;59.828;30.328;2023-04-25T12:17:36;3.55;;;1.40;;
51272;SDS011;37345;59.828;30.328;2023-04-25T12:20:05;2.50;;;1.33;;
51272;SDS011;37345;59.828;30.328;2023-04-25T12:22:32;2.28;;;1.20;;
51272;SDS011;37345;59.828;30.328;2023-04-25T12:24:58;2.83;;;1.35;;
51272;SDS011;37345;59.828;30.328;2023-04-25T12:27:25;4.27;;;1.57;;
51272;SDS011;37345;59.828;30.328;2023-04-25T12:29:55;1.90;;;1.35;;
51272;SDS011;37345;59.828;30.328;2023-04-25T12:32:21;1.40;;;1.23;;
51272;SDS011;37345;59.828;30.328;2023-04-25T12:34:48;2.85;;;1.40;;
51272;SDS011;37345;59.828;30.328;2023-04-25T12:37:14;1.67;;;1.30;;
51272;SDS011;37345;59.828;30.328;2023-04-25T12:39:40;4.63;;;1.50;;
51272;SDS011;37345;59.828;30.328;2023-04-25T12:42:07;2.40;;;1.60;;
51272;SDS011;37345;59.828;30.328;2023-04-25T12:44:36;2.22;;;1.63;;
51272;SDS011;37345;59.828;30.328;2023-04-25T12:47:02;7.38;;;1.60;;
51272;SDS011;37345;59.828;30.328;2023-04-25T12:49:29;5.68;;;1.70;;
51272;SDS011;37345;59.828;30.328;2023-04-25T12:51:55;2.35;;;1.40;;
51272;SDS011;37345;59.828;30.328;2023-04-25T12:54:21;2.17;;;1.60;;
51272;SDS011;37345;59.828;30.328;2023-04-25T12:56:47;2.13;;;1.40;;
51272;SDS011;37345;59.828;30.328;2023-04-25T12:59:15;2.75;;;1.40;;
51272;SDS011;37345;59.828;30.328;2023-04-25T13:01:41;3.47;;;1.52;;
51272;SDS011;37345;59.828;30.328;2023-04-25T13:04:07;3.85;;;1.80;;
51272;SDS011;37345;59.828;30.328;2023-04-25T13:06:34;4.10;;;1.40;;
51272;SDS011;37345;59.828;30.328;2023-04-25T13:09:00;3.30;;;1.55;;
51272;SDS011;37345;59.828;30.328;2023-04-25T13:11:28;3.33;;;1.38;;
51272;SDS011;37345;59.828;30.328;2023-04-25T13:13:55;3.67;;;1.63;;
51272;SDS011;37345;59.828;30.328;2023-04-25T13:16:21;4.38;;;1.50;;
51272;SDS011;37345;59.828;30.328;2023-04-25T13:18:48;2.43;;;1.40;;
51272;SDS011;37345;59.828;30.328;2023-04-25T13:21:14;3.58;;;2.00;;
51272;SDS011;37345;59.828;30.328;2023-04-25T13:23:40;2.60;;;1.40;;
51272;SDS011;37345;59.828;30.328;2023-04-25T13:26:08;2.60;;;1.40;;
51272;SDS011;37345;59.828;30.328;2023-04-25T13:28:34;2.13;;;1.40;;
51272;SDS011;37345;59.828;30.328;2023-04-25T13:31:00;3.73;;;1.53;;
51272;SDS011;37345;59.828;30.328;2023-04-25T13:33:26;5.20;;;1.43;;
51272;SDS011;37345;59.828;30.328;2023-04-25T13:35:52;3.50;;;1.50;;
51272;SDS011;37345;59.828;30.328;2023-04-25T13:38:23;2.67;;;1.42;;
51272;SDS011;37345;59.828;30.328;2023-04-25T13:40:49;3.53;;;1.20;;
51272;SDS011;37345;59.828;30.328;2023-04-25T13:43:18;2.75;;;1.65;;
51272;SDS011;37345;59.828;30.328;2023-04-25T13:45:44;2.92;;;1.58;;
51272;SDS011;37345;59.828;30.328;2023-04-25T13:48:10;4.87;;;1.33;;
51272;SDS011;37345;59.828;30.328;2023-04-25T13:50:36;2.80;;;1.70;;
51272;SDS011;37345;59.828;30.328;2023-04-25T13:53:03;2.70;;;1.50;;
51272;SDS011;37345;59.828;30.328;2023-04-25T13:55:29;2.25;;;1.33;;
51272;SDS011;37345;59.828;30.328;2023-04-25T13:57:55;2.03;;;1.52;;
51272;SDS011;37345;59.828;30.328;2023-04-25T14:00:21;4.53;;;1.98;;
51272;SDS011;37345;59.828;30.328;2023-04-25T14:02:48;3.93;;;1.93;;
51272;SDS011;37345;59.828;30.328;2023-04-25T14:05:14;3.42;;;1.80;;
51272;SDS011;37345;59.828;30.328;2023-04-25T14:07:40;5.35;;;1.70;;
51272;SDS011;37345;59.828;30.328;2023-04-25T14:10:07;4.20;;;1.83;;
51272;SDS011;37345;59.828;30.328;2023-04-25T14:12:33;3.50;;;1.50;;
51272;SDS011;37345;59.828;30.328;2023-04-25T14:15:00;2.50;;;1.70;;
51272;SDS011;37345;59.828;30.328;2023-04-25T14:17:26;2.42;;;1.52;;
51272;SDS011;37345;59.828;30.328;2023-04-25T14:19:52;4.65;;;1.90;;
51272;SDS011;37345;59.828;30.328;2023-04-25T14:22:18;4.85;;;1.58;;
51272;SDS011;37345;59.828;30.328;2023-04-25T14:24:44;2.30;;;1.50;;
51272;SDS011;37345;59.828;30.328;2023-04-25T14:27:10;3.23;;;1.33;;
51272;SDS011;37345;59.828;30.328;2023-04-25T14:29:36;3.30;;;1.70;;
51272;SDS011;37345;59.828;30.328;2023-04-25T14:32:03;3.03;;;1.58;;
51272;SDS011;37345;59.828;30.328;2023-04-25T14:34:30;3.03;;;1.70;;